Decoded Metar for KHNZ (HENDERSON/OXFORD in NC, USA) (IATA:HNZ) | Meteo·Mobile Aviation Weather
aviador You're here:

KHNZ Decoded Metar

HENDERSON/OXFORD in NC, USA
Report Time2018-10-22 09:25:00
UTC Time2018-10-22 09:51:54
Flight Rules vfr VFR
Wind070° at 03 kt
W.Decomp.*RWY 06: 2.9 kt HW 0.9 kt RCW
W.Rank070° ranks 28
Current wind is below 070° avg. (5.6)
Visibility9999 m
Phenomena:N/A
Clouds:N/A
Expected CloudBase > 400 ft AGL from Temp-Dew spread
CeilingNone
Temp00°C (ISA -14)
Dew Point-1°C (93% RH)
AAT-3.2°C
QNH1026 hPa
Density Alt-1,539 ft
Elevation528 ft
Report Wrong Elevation
Raw Report
METAR KHNZ 220925Z AUTO 07003KT 10SM CLR 00/M01 A3029 RMK AO2 T10031007=

Extra information for KHNZ:More info

Metar Taf Metar & Taf Last 4 Metars F.Rules Stats Wind Profile Meteogram Temp Stats Airport Information Weather charts Add Link Nearby VenuesMetar ALERT Operation Metar Decoded Social comments

AIRNAV info for KHNZ